sensor_id;sensor_type;location;lat;lon;timestamp;pressure;altitude;pressure_sealevel;temperature;humidity
38939;BME280;24211;49.980;19.776;2022-10-16T00:17:43;99532.41;;;13.41;100.00
38939;BME280;24211;49.980;19.776;2022-10-16T00:20:11;99536.13;;;13.40;100.00
38939;BME280;24211;49.980;19.776;2022-10-16T00:22:38;99540.47;;;13.41;100.00
38939;BME280;24211;49.980;19.776;2022-10-16T00:25:07;99540.47;;;13.41;100.00
38939;BME280;24211;49.980;19.776;2022-10-16T00:27:35;99542.31;;;13.41;100.00
38939;BME280;24211;49.980;19.776;2022-10-16T00:30:18;99546.06;;;13.40;100.00
38939;BME280;24211;49.980;19.776;2022-10-16T00:32:48;99547.13;;;13.39;100.00
38939;BME280;24211;49.980;19.776;2022-10-16T00:35:16;99549.81;;;13.39;100.00
38939;BME280;24211;49.980;19.776;2022-10-16T00:37:44;99563.22;;;13.39;100.00
38939;BME280;24211;49.980;19.776;2022-10-16T00:40:15;99564.28;;;13.38;100.00
38939;BME280;24211;49.980;19.776;2022-10-16T00:42:43;99565.91;;;13.39;100.00
38939;BME280;24211;49.980;19.776;2022-10-16T00:45:11;99564.28;;;13.38;100.00
38939;BME280;24211;49.980;19.776;2022-10-16T00:52:57;99568.00;;;13.37;100.00
38939;BME280;24211;49.980;19.776;2022-10-16T00:55:30;99571.75;;;13.36;100.00
38939;BME280;24211;49.980;19.776;2022-10-16T00:58:20;99572.56;;;13.36;100.00
38939;BME280;24211;49.980;19.776;2022-10-16T01:02:15;99570.09;;;13.35;100.00
38939;BME280;24211;49.980;19.776;2022-10-16T01:05:10;99567.41;;;13.35;100.00
38939;BME280;24211;49.980;19.776;2022-10-16T01:21:54;99576.53;;;13.34;100.00
38939;BME280;24211;49.980;19.776;2022-10-16T01:28:55;99559.84;;;13.32;100.00
38939;BME280;24211;49.980;19.776;2022-10-16T01:52:37;99575.84;;;13.27;100.00
38939;BME280;24211;49.980;19.776;2022-10-16T01:55:10;99583.91;;;13.27;100.00
38939;BME280;24211;49.980;19.776;2022-10-16T01:57:45;99575.25;;;13.25;100.00
38939;BME280;24211;49.980;19.776;2022-10-16T02:00:16;99584.13;;;13.25;100.00
38939;BME280;24211;49.980;19.776;2022-10-16T02:02:50;99582.72;;;13.23;100.00
38939;BME280;24211;49.980;19.776;2022-10-16T02:05:53;99583.56;;;13.23;100.00
38939;BME280;24211;49.980;19.776;2022-10-16T02:08:30;99584.84;;;13.21;100.00
38939;BME280;24211;49.980;19.776;2022-10-16T02:11:00;99583.19;;;13.20;100.00
38939;BME280;24211;49.980;19.776;2022-10-16T02:13:45;99590.44;;;13.19;100.00
38939;BME280;24211;49.980;19.776;2022-10-16T02:16:37;99589.84;;;13.17;100.00
38939;BME280;24211;49.980;19.776;2022-10-16T02:49:23;99591.34;;;13.01;100.00
38939;BME280;24211;49.980;19.776;2022-10-16T02:59:20;99602.19;;;12.95;100.00
38939;BME280;24211;49.980;19.776;2022-10-16T03:01:57;99596.03;;;12.94;100.00
38939;BME280;24211;49.980;19.776;2022-10-16T03:04:28;99592.72;;;12.92;100.00
38939;BME280;24211;49.980;19.776;2022-10-16T03:06:57;99596.72;;;12.90;100.00
38939;BME280;24211;49.980;19.776;2022-10-16T03:09:32;99593.22;;;12.89;100.00
38939;BME280;24211;49.980;19.776;2022-10-16T03:12:13;99588.88;;;12.88;100.00
38939;BME280;24211;49.980;19.776;2022-10-16T03:15:34;99593.69;;;12.86;100.00
38939;BME280;24211;49.980;19.776;2022-10-16T03:18:03;99591.44;;;12.83;100.00
38939;BME280;24211;49.980;19.776;2022-10-16T03:20:31;99597.28;;;12.80;100.00
38939;BME280;24211;49.980;19.776;2022-10-16T03:23:02;99592.97;;;12.79;100.00
38939;BME280;24211;49.980;19.776;2022-10-16T03:25:45;99594.47;;;12.75;100.00
38939;BME280;24211;49.980;19.776;2022-10-16T04:18:29;99661.03;;;12.25;100.00
38939;BME280;24211;49.980;19.776;2022-10-16T05:42:21;99683.69;;;11.75;100.00
38939;BME280;24211;49.980;19.776;2022-10-16T05:44:54;99697.03;;;11.82;100.00
38939;BME280;24211;49.980;19.776;2022-10-16T05:47:21;99697.63;;;11.84;100.00
38939;BME280;24211;49.980;19.776;2022-10-16T05:49:49;99693.28;;;11.82;100.00
38939;BME280;24211;49.980;19.776;2022-10-16T05:57:01;99691.19;;;11.85;100.00
38939;BME280;24211;49.980;19.776;2022-10-16T06:35:01;99746.09;;;12.12;100.00
38939;BME280;24211;49.980;19.776;2022-10-16T06:38:18;99751.03;;;12.15;100.00
38939;BME280;24211;49.980;19.776;2022-10-16T06:40:46;99755.13;;;12.17;100.00
38939;BME280;24211;49.980;19.776;2022-10-16T06:43:15;99760.03;;;12.20;100.00
38939;BME280;24211;49.980;19.776;2022-10-16T06:45:43;99762.47;;;12.22;100.00
38939;BME280;24211;49.980;19.776;2022-10-16T06:48:47;99771.72;;;12.26;100.00
38939;BME280;24211;49.980;19.776;2022-10-16T07:25:53;99788.03;;;13.02;100.00
38939;BME280;24211;49.980;19.776;2022-10-16T07:28:20;99791.81;;;13.13;100.00
38939;BME280;24211;49.980;19.776;2022-10-16T07:30:48;99791.63;;;13.26;100.00
38939;BME280;24211;49.980;19.776;2022-10-16T07:33:17;99793.50;;;13.37;100.00
38939;BME280;24211;49.980;19.776;2022-10-16T07:35:51;99780.31;;;13.47;100.00
38939;BME280;24211;49.980;19.776;2022-10-16T07:38:20;99793.53;;;13.60;100.00
38939;BME280;24211;49.980;19.776;2022-10-16T07:41:05;99785.72;;;13.70;100.00
38939;BME280;24211;49.980;19.776;2022-10-16T07:43:33;99790.25;;;13.81;100.00
38939;BME280;24211;49.980;19.776;2022-10-16T07:46:27;99790.50;;;13.91;100.00
38939;BME280;24211;49.980;19.776;2022-10-16T07:48:55;99794.47;;;14.00;100.00
38939;BME280;24211;49.980;19.776;2022-10-16T07:51:25;99799.00;;;14.11;100.00
38939;BME280;24211;49.980;19.776;2022-10-16T07:53:53;99793.84;;;14.21;100.00
38939;BME280;24211;49.980;19.776;2022-10-16T07:56:22;99797.84;;;14.30;100.00
38939;BME280;24211;49.980;19.776;2022-10-16T07:58:52;99799.13;;;14.39;100.00
38939;BME280;24211;49.980;19.776;2022-10-16T08:01:20;99804.78;;;14.55;100.00
38939;BME280;24211;49.980;19.776;2022-10-16T08:03:50;99804.97;;;14.76;100.00
38939;BME280;24211;49.980;19.776;2022-10-16T08:06:22;99799.72;;;14.98;100.00
38939;BME280;24211;49.980;19.776;2022-10-16T08:08:56;99804.41;;;15.19;100.00
38939;BME280;24211;49.980;19.776;2022-10-16T08:11:23;99808.03;;;15.41;100.00
38939;BME280;24211;49.980;19.776;2022-10-16T08:13:51;99802.53;;;15.64;100.00
38939;BME280;24211;49.980;19.776;2022-10-16T08:16:19;99796.28;;;15.81;100.00
38939;BME280;24211;49.980;19.776;2022-10-16T08:18:47;99805.72;;;16.00;100.00
38939;BME280;24211;49.980;19.776;2022-10-16T08:21:18;99800.63;;;16.20;100.00
38939;BME280;24211;49.980;19.776;2022-10-16T08:23:49;99798.19;;;17.05;100.00
38939;BME280;24211;49.980;19.776;2022-10-16T08:26:23;99795.63;;;18.30;100.00
38939;BME280;24211;49.980;19.776;2022-10-16T08:28:50;99785.94;;;19.82;100.00
38939;BME280;24211;49.980;19.776;2022-10-16T08:31:20;99784.03;;;20.72;100.00
38939;BME280;24211;49.980;19.776;2022-10-16T08:33:47;99783.69;;;20.88;100.00
38939;BME280;24211;49.980;19.776;2022-10-16T08:50:30;99791.00;;;18.93;100.00
38939;BME280;24211;49.980;19.776;2022-10-16T08:52:59;99798.06;;;18.89;100.00
38939;BME280;24211;49.980;19.776;2022-10-16T09:00:44;99801.88;;;19.03;100.00
38939;BME280;24211;49.980;19.776;2022-10-16T09:03:40;99801.34;;;19.11;100.00
38939;BME280;24211;49.980;19.776;2022-10-16T09:09:09;99797.56;;;19.22;100.00
38939;BME280;24211;49.980;19.776;2022-10-16T09:23:47;99799.81;;;19.61;100.00
38939;BME280;24211;49.980;19.776;2022-10-16T09:26:17;99807.38;;;19.69;100.00
38939;BME280;24211;49.980;19.776;2022-10-16T09:28:48;99810.91;;;19.74;100.00
38939;BME280;24211;49.980;19.776;2022-10-16T09:31:20;99809.00;;;19.80;100.00
38939;BME280;24211;49.980;19.776;2022-10-16T09:33:55;99800.84;;;19.90;100.00
38939;BME280;24211;49.980;19.776;2022-10-16T09:36:27;99800.81;;;20.05;100.00
38939;BME280;24211;49.980;19.776;2022-10-16T09:39:08;99804.00;;;20.37;100.00
38939;BME280;24211;49.980;19.776;2022-10-16T09:41:42;99808.25;;;20.68;100.00
38939;BME280;24211;49.980;19.776;2022-10-16T09:44:28;99807.88;;;20.90;100.00
38939;BME280;24211;49.980;19.776;2022-10-16T09:47:19;99801.44;;;21.25;100.00
38939;BME280;24211;49.980;19.776;2022-10-16T09:49:56;99798.06;;;21.38;100.00
38939;BME280;24211;49.980;19.776;2022-10-16T09:52:25;99798.06;;;21.38;100.00
38939;BME280;24211;49.980;19.776;2022-10-16T09:54:59;99796.38;;;21.47;100.00
38939;BME280;24211;49.980;19.776;2022-10-16T09:57:27;99798.91;;;21.67;100.00
38939;BME280;24211;49.980;19.776;2022-10-16T09:59:58;99793.91;;;21.79;100.00
38939;BME280;24211;49.980;19.776;2022-10-16T10:02:37;99794.13;;;21.88;100.00
38939;BME280;24211;49.980;19.776;2022-10-16T10:05:18;99797.31;;;21.95;100.00
38939;BME280;24211;49.980;19.776;2022-10-16T10:07:58;99795.03;;;22.07;100.00
38939;BME280;24211;49.980;19.776;2022-10-16T10:10:32;99797.81;;;22.26;100.00
38939;BME280;24211;49.980;19.776;2022-10-16T10:13:01;99793.75;;;22.47;100.00
38939;BME280;24211;49.980;19.776;2022-10-16T10:15:36;99801.22;;;22.60;100.00
38939;BME280;24211;49.980;19.776;2022-10-16T10:18:22;99803.25;;;22.73;100.00
38939;BME280;24211;49.980;19.776;2022-10-16T10:20:59;99794.88;;;22.88;100.00
38939;BME280;24211;49.980;19.776;2022-10-16T10:23:34;99797.53;;;22.93;100.00
38939;BME280;24211;49.980;19.776;2022-10-16T10:26:18;99798.50;;;23.02;100.00
38939;BME280;24211;49.980;19.776;2022-10-16T10:29:14;99796.22;;;23.09;100.00
38939;BME280;24211;49.980;19.776;2022-10-16T10:34:43;99802.56;;;23.23;100.00
38939;BME280;24211;49.980;19.776;2022-10-16T10:40:11;99786.28;;;23.37;100.00
38939;BME280;24211;49.980;19.776;2022-10-16T10:43:39;99791.97;;;23.40;100.00
38939;BME280;24211;49.980;19.776;2022-10-16T10:45:47;99782.88;;;23.45;100.00
38939;BME280;24211;49.980;19.776;2022-10-16T10:48:38;99777.66;;;23.49;100.00
38939;BME280;24211;49.980;19.776;2022-10-16T10:51:40;99783.88;;;23.49;100.00
38939;BME280;24211;49.980;19.776;2022-10-16T10:54:23;99781.47;;;23.48;100.00
38939;BME280;24211;49.980;19.776;2022-10-16T11:00:00;99784.19;;;23.48;100.00
38939;BME280;24211;49.980;19.776;2022-10-16T11:05:40;99779.94;;;23.42;100.00
38939;BME280;24211;49.980;19.776;2022-10-16T11:08:17;99783.47;;;23.42;100.00
38939;BME280;24211;49.980;19.776;2022-10-16T11:11:04;99788.13;;;23.42;100.00
38939;BME280;24211;49.980;19.776;2022-10-16T11:16:23;99779.47;;;23.34;100.00
38939;BME280;24211;49.980;19.776;2022-10-16T11:21:49;99780.16;;;23.26;100.00
38939;BME280;24211;49.980;19.776;2022-10-16T11:27:26;99783.41;;;23.28;100.00
38939;BME280;24211;49.980;19.776;2022-10-16T11:30:02;99783.41;;;23.28;100.00
38939;BME280;24211;49.980;19.776;2022-10-16T11:32:43;99785.63;;;23.26;100.00
38939;BME280;24211;49.980;19.776;2022-10-16T11:35:36;99791.84;;;23.27;100.00
38939;BME280;24211;49.980;19.776;2022-10-16T11:38:23;99783.97;;;23.25;100.00
38939;BME280;24211;49.980;19.776;2022-10-16T11:41:00;99794.88;;;23.25;100.00
38939;BME280;24211;49.980;19.776;2022-10-16T11:43:37;99791.66;;;23.23;100.00
38939;BME280;24211;49.980;19.776;2022-10-16T11:46:18;99790.63;;;23.19;100.00
38939;BME280;24211;49.980;19.776;2022-10-16T11:49:13;99788.75;;;23.15;100.00
38939;BME280;24211;49.980;19.776;2022-10-16T11:51:54;99784.22;;;23.10;100.00
38939;BME280;24211;49.980;19.776;2022-10-16T11:54:43;99787.50;;;23.07;100.00
38939;BME280;24211;49.980;19.776;2022-10-16T11:57:29;99786.50;;;23.03;100.00
38939;BME280;24211;49.980;19.776;2022-10-16T12:00:26;99792.53;;;23.00;100.00
38939;BME280;24211;49.980;19.776;2022-10-16T12:03:26;99789.88;;;22.95;100.00
38939;BME280;24211;49.980;19.776;2022-10-16T12:06:06;99793.47;;;22.91;100.00
38939;BME280;24211;49.980;19.776;2022-10-16T12:08:39;99797.09;;;22.86;100.00
38939;BME280;24211;49.980;19.776;2022-10-16T12:17:44;99801.84;;;22.75;100.00
38939;BME280;24211;49.980;19.776;2022-10-16T12:22:50;99797.69;;;22.83;95.51
38939;BME280;24211;49.980;19.776;2022-10-16T12:25:36;99797.53;;;22.74;95.64
38939;BME280;24211;49.980;19.776;2022-10-16T12:28:19;99794.56;;;22.71;97.30
38939;BME280;24211;49.980;19.776;2022-10-16T12:31:06;99796.78;;;22.69;97.57
38939;BME280;24211;49.980;19.776;2022-10-16T12:34:21;99797.59;;;22.69;99.09
38939;BME280;24211;49.980;19.776;2022-10-16T12:36:42;99801.66;;;22.72;100.00
38939;BME280;24211;49.980;19.776;2022-10-16T12:39:22;99799.44;;;22.74;100.00
38939;BME280;24211;49.980;19.776;2022-10-16T12:42:19;99809.25;;;22.75;100.00
38939;BME280;24211;49.980;19.776;2022-10-16T12:44:46;99808.72;;;22.73;100.00
38939;BME280;24211;49.980;19.776;2022-10-16T12:50:00;99803.03;;;22.69;100.00
38939;BME280;24211;49.980;19.776;2022-10-16T12:52:39;99805.53;;;22.66;100.00
38939;BME280;24211;49.980;19.776;2022-10-16T12:55:18;99800.09;;;22.66;100.00
38939;BME280;24211;49.980;19.776;2022-10-16T12:58:12;99802.81;;;22.66;100.00
38939;BME280;24211;49.980;19.776;2022-10-16T13:00:57;99801.72;;;22.67;100.00
38939;BME280;24211;49.980;19.776;2022-10-16T13:10:10;99815.91;;;22.64;100.00
38939;BME280;24211;49.980;19.776;2022-10-16T13:13:13;99817.56;;;22.65;100.00
38939;BME280;24211;49.980;19.776;2022-10-16T13:16:04;99832.25;;;22.64;100.00
38939;BME280;24211;49.980;19.776;2022-10-16T13:19:44;99823.56;;;22.62;100.00
38939;BME280;24211;49.980;19.776;2022-10-16T13:21:59;99830.69;;;22.58;100.00
38939;BME280;24211;49.980;19.776;2022-10-16T13:28:03;99824.22;;;22.49;100.00
38939;BME280;24211;49.980;19.776;2022-10-16T13:30:51;99830.81;;;22.48;100.00
38939;BME280;24211;49.980;19.776;2022-10-16T13:33:40;99828.13;;;22.43;100.00
38939;BME280;24211;49.980;19.776;2022-10-16T13:36:25;99826.50;;;22.42;100.00
38939;BME280;24211;49.980;19.776;2022-10-16T13:42:13;99839.91;;;22.38;100.00
38939;BME280;24211;49.980;19.776;2022-10-16T13:44:46;99841.00;;;22.37;100.00
38939;BME280;24211;49.980;19.776;2022-10-16T13:47:27;99842.91;;;22.37;100.00
38939;BME280;24211;49.980;19.776;2022-10-16T13:50:18;99842.91;;;22.37;100.00
38939;BME280;24211;49.980;19.776;2022-10-16T13:52:45;99847.53;;;22.36;100.00
38939;BME280;24211;49.980;19.776;2022-10-16T13:55:16;99859.81;;;22.34;100.00
38939;BME280;24211;49.980;19.776;2022-10-16T13:57:44;99859.59;;;22.30;100.00
38939;BME280;24211;49.980;19.776;2022-10-16T14:02:58;99867.56;;;22.22;100.00
38939;BME280;24211;49.980;19.776;2022-10-16T14:05:29;99868.41;;;22.17;100.00
38939;BME280;24211;49.980;19.776;2022-10-16T14:07:58;99863.84;;;22.12;100.00
38939;BME280;24211;49.980;19.776;2022-10-16T14:10:31;99855.72;;;22.07;100.00
38939;BME280;24211;49.980;19.776;2022-10-16T14:13:03;99871.00;;;22.03;100.00
38939;BME280;24211;49.980;19.776;2022-10-16T14:15:33;99862.88;;;21.98;100.00
38939;BME280;24211;49.980;19.776;2022-10-16T14:18:03;99861.81;;;21.94;100.00
38939;BME280;24211;49.980;19.776;2022-10-16T14:20:33;99859.97;;;21.90;100.00
38939;BME280;24211;49.980;19.776;2022-10-16T14:23:35;99853.47;;;21.86;100.00
38939;BME280;24211;49.980;19.776;2022-10-16T14:26:13;99855.91;;;21.82;100.00
38939;BME280;24211;49.980;19.776;2022-10-16T14:28:43;99860.00;;;21.80;100.00
38939;BME280;24211;49.980;19.776;2022-10-16T14:31:29;99856.75;;;21.78;100.00
38939;BME280;24211;49.980;19.776;2022-10-16T14:33:57;99858.16;;;21.75;100.00
38939;BME280;24211;49.980;19.776;2022-10-16T14:36:27;99852.19;;;21.73;100.00
38939;BME280;24211;49.980;19.776;2022-10-16T14:39:16;99851.66;;;21.71;100.00
38939;BME280;24211;49.980;19.776;2022-10-16T14:41:48;99851.13;;;21.69;100.00
38939;BME280;24211;49.980;19.776;2022-10-16T14:44:28;99847.34;;;21.65;100.00
38939;BME280;24211;49.980;19.776;2022-10-16T14:46:57;99854.97;;;21.63;100.00
38939;BME280;24211;49.980;19.776;2022-10-16T14:49:27;99844.66;;;21.60;100.00
38939;BME280;24211;49.980;19.776;2022-10-16T14:51:57;99847.41;;;21.55;100.00
38939;BME280;24211;49.980;19.776;2022-10-16T14:54:25;99847.75;;;21.48;100.00
38939;BME280;24211;49.980;19.776;2022-10-16T14:56:58;99848.91;;;21.42;100.00
38939;BME280;24211;49.980;19.776;2022-10-16T14:59:35;99854.63;;;21.36;100.00
38939;BME280;24211;49.980;19.776;2022-10-16T15:02:20;99855.22;;;21.28;100.00
38939;BME280;24211;49.980;19.776;2022-10-16T15:04:51;99852.81;;;21.21;100.00
38939;BME280;24211;49.980;19.776;2022-10-16T15:07:19;99869.44;;;21.15;100.00
38939;BME280;24211;49.980;19.776;2022-10-16T15:09:46;99874.91;;;21.10;100.00
38939;BME280;24211;49.980;19.776;2022-10-16T15:12:18;99884.13;;;21.04;100.00
38939;BME280;24211;49.980;19.776;2022-10-16T15:14:46;99879.84;;;20.98;100.00
38939;BME280;24211;49.980;19.776;2022-10-16T15:17:13;99888.81;;;20.93;100.00
38939;BME280;24211;49.980;19.776;2022-10-16T15:19:46;99889.09;;;20.86;100.00
38939;BME280;24211;49.980;19.776;2022-10-16T15:22:13;99894.03;;;20.79;100.00
38939;BME280;24211;49.980;19.776;2022-10-16T15:24:40;99895.16;;;20.73;100.00
38939;BME280;24211;49.980;19.776;2022-10-16T15:27:08;99897.88;;;20.68;100.00
38939;BME280;24211;49.980;19.776;2022-10-16T15:29:35;99895.19;;;20.63;100.00
38939;BME280;24211;49.980;19.776;2022-10-16T15:32:03;99901.69;;;20.57;100.00
38939;BME280;24211;49.980;19.776;2022-10-16T15:34:30;99895.75;;;20.50;100.00
38939;BME280;24211;49.980;19.776;2022-10-16T15:36:57;99903.91;;;20.45;100.00
38939;BME280;24211;49.980;19.776;2022-10-16T15:39:27;99905.00;;;20.39;100.00
38939;BME280;24211;49.980;19.776;2022-10-16T15:42:07;99904.47;;;20.32;100.00
38939;BME280;24211;49.980;19.776;2022-10-16T15:44:35;99905.56;;;20.26;100.00
38939;BME280;24211;49.980;19.776;2022-10-16T15:47:02;99911.25;;;20.19;100.00
38939;BME280;24211;49.980;19.776;2022-10-16T15:49:49;99909.91;;;20.12;100.00
38939;BME280;24211;49.980;19.776;2022-10-16T15:52:24;99907.19;;;20.07;100.00
38939;BME280;24211;49.980;19.776;2022-10-16T15:54:58;99912.06;;;20.00;100.00
38939;BME280;24211;49.980;19.776;2022-10-16T15:57:28;99913.16;;;19.94;100.00
38939;BME280;24211;49.980;19.776;2022-10-16T15:59:56;99917.50;;;19.90;100.00
38939;BME280;24211;49.980;19.776;2022-10-16T16:02:24;99915.56;;;19.85;100.00
38939;BME280;24211;49.980;19.776;2022-10-16T16:10:24;99918.00;;;19.67;100.00
38939;BME280;24211;49.980;19.776;2022-10-16T16:19:00;99921.22;;;19.48;100.00
38939;BME280;24211;49.980;19.776;2022-10-16T16:27:04;99935.78;;;19.27;100.00
38939;BME280;24211;49.980;19.776;2022-10-16T16:29:33;99936.84;;;19.21;100.00
38939;BME280;24211;49.980;19.776;2022-10-16T16:32:02;99944.97;;;19.16;100.00
38939;BME280;24211;49.980;19.776;2022-10-16T16:34:29;99945.19;;;19.10;100.00
38939;BME280;24211;49.980;19.776;2022-10-16T16:36:57;99952.50;;;19.04;100.00
38939;BME280;24211;49.980;19.776;2022-10-16T16:40:08;99955.44;;;18.98;100.00
38939;BME280;24211;49.980;19.776;2022-10-16T16:48:24;99954.53;;;18.77;100.00
38939;BME280;24211;49.980;19.776;2022-10-16T16:50:52;99958.28;;;18.71;100.00
38939;BME280;24211;49.980;19.776;2022-10-16T16:53:20;99957.69;;;18.64;100.00
38939;BME280;24211;49.980;19.776;2022-10-16T16:55:49;99965.78;;;18.59;100.00
38939;BME280;24211;49.980;19.776;2022-10-16T16:58:17;99963.03;;;18.54;100.00
38939;BME280;24211;49.980;19.776;2022-10-16T17:00:47;99969.47;;;18.48;100.00
38939;BME280;24211;49.980;19.776;2022-10-16T17:03:24;99974.03;;;18.42;100.00
38939;BME280;24211;49.980;19.776;2022-10-16T17:05:58;99979.41;;;18.37;100.00
38939;BME280;24211;49.980;19.776;2022-10-16T17:08:26;99980.19;;;18.33;100.00
38939;BME280;24211;49.980;19.776;2022-10-16T17:10:54;99973.09;;;18.26;100.00
38939;BME280;24211;49.980;19.776;2022-10-16T17:13:24;99984.97;;;18.20;100.00
38939;BME280;24211;49.980;19.776;2022-10-16T17:15:53;99994.66;;;18.16;100.00
38939;BME280;24211;49.980;19.776;2022-10-16T17:18:23;99995.69;;;18.10;100.00
38939;BME280;24211;49.980;19.776;2022-10-16T17:20:51;99991.31;;;18.04;100.00
38939;BME280;24211;49.980;19.776;2022-10-16T17:23:19;100008.56;;;17.98;100.00
38939;BME280;24211;49.980;19.776;2022-10-16T17:25:46;100005.00;;;17.93;100.00
38939;BME280;24211;49.980;19.776;2022-10-16T17:28:14;100012.22;;;17.87;100.00
38939;BME280;24211;49.980;19.776;2022-10-16T17:30:42;100016.53;;;17.83;100.00
38939;BME280;24211;49.980;19.776;2022-10-16T17:33:14;100022.94;;;17.77;100.00
38939;BME280;24211;49.980;19.776;2022-10-16T17:35:46;100031.81;;;17.73;100.00
38939;BME280;24211;49.980;19.776;2022-10-16T17:38:14;100025.53;;;17.67;100.00
38939;BME280;24211;49.980;19.776;2022-10-16T17:40:43;100030.88;;;17.62;100.00
38939;BME280;24211;49.980;19.776;2022-10-16T17:43:10;100040.00;;;17.56;100.00
38939;BME280;24211;49.980;19.776;2022-10-16T17:45:38;100034.50;;;17.51;100.00
38939;BME280;24211;49.980;19.776;2022-10-16T17:48:05;100035.50;;;17.45;100.00
38939;BME280;24211;49.980;19.776;2022-10-16T17:50:33;100027.34;;;17.40;100.00
38939;BME280;24211;49.980;19.776;2022-10-16T17:53:00;100032.19;;;17.38;100.00
38939;BME280;24211;49.980;19.776;2022-10-16T17:55:27;100033.75;;;17.34;100.00
38939;BME280;24211;49.980;19.776;2022-10-16T17:57:56;100027.19;;;17.30;100.00
38939;BME280;24211;49.980;19.776;2022-10-16T18:00:24;100040.69;;;17.25;100.00
38939;BME280;24211;49.980;19.776;2022-10-16T18:02:52;100036.00;;;17.20;100.00
38939;BME280;24211;49.980;19.776;2022-10-16T18:05:19;100047.56;;;17.16;100.00
38939;BME280;24211;49.980;19.776;2022-10-16T18:07:47;100052.31;;;17.09;100.00
38939;BME280;24211;49.980;19.776;2022-10-16T18:10:14;100054.94;;;17.04;100.00
38939;BME280;24211;49.980;19.776;2022-10-16T18:12:47;100059.72;;;16.96;100.00
38939;BME280;24211;49.980;19.776;2022-10-16T18:15:14;100067.75;;;16.91;100.00
38939;BME280;24211;49.980;19.776;2022-10-16T18:17:42;100067.66;;;16.86;100.00
38939;BME280;24211;49.980;19.776;2022-10-16T18:20:10;100073.81;;;16.82;100.00
38939;BME280;24211;49.980;19.776;2022-10-16T18:22:38;100076.16;;;16.78;100.00
38939;BME280;24211;49.980;19.776;2022-10-16T18:25:06;100073.38;;;16.73;100.00
38939;BME280;24211;49.980;19.776;2022-10-16T18:27:35;100082.00;;;16.70;100.00
38939;BME280;24211;49.980;19.776;2022-10-16T18:30:05;100081.66;;;16.67;100.00
38939;BME280;24211;49.980;19.776;2022-10-16T18:32:33;100092.94;;;16.64;100.00
38939;BME280;24211;49.980;19.776;2022-10-16T18:35:05;100098.03;;;16.60;100.00
38939;BME280;24211;49.980;19.776;2022-10-16T18:37:36;100106.03;;;16.55;100.00
38939;BME280;24211;49.980;19.776;2022-10-16T18:40:29;100105.34;;;16.48;100.00
38939;BME280;24211;49.980;19.776;2022-10-16T18:43:04;100104.19;;;16.44;100.00
38939;BME280;24211;49.980;19.776;2022-10-16T18:45:33;100110.09;;;16.41;100.00
38939;BME280;24211;49.980;19.776;2022-10-16T18:48:04;100116.44;;;16.35;100.00
38939;BME280;24211;49.980;19.776;2022-10-16T18:50:34;100117.38;;;16.29;100.00
38939;BME280;24211;49.980;19.776;2022-10-16T18:53:03;100127.28;;;16.23;100.00
38939;BME280;24211;49.980;19.776;2022-10-16T18:55:34;100130.09;;;16.17;100.00
38939;BME280;24211;49.980;19.776;2022-10-16T18:58:05;100123.56;;;16.13;100.00
38939;BME280;24211;49.980;19.776;2022-10-16T19:00:33;100133.22;;;16.09;100.00
38939;BME280;24211;49.980;19.776;2022-10-16T19:03:14;100129.34;;;16.05;100.00
38939;BME280;24211;49.980;19.776;2022-10-16T19:05:42;100136.28;;;16.01;100.00
38939;BME280;24211;49.980;19.776;2022-10-16T19:08:16;100141.31;;;15.97;100.00
38939;BME280;24211;49.980;19.776;2022-10-16T19:10:45;100142.63;;;15.95;100.00
38939;BME280;24211;49.980;19.776;2022-10-16T19:13:14;100140.66;;;15.90;100.00
38939;BME280;24211;49.980;19.776;2022-10-16T19:15:48;100144.06;;;15.86;100.00
38939;BME280;24211;49.980;19.776;2022-10-16T19:18:30;100148.31;;;15.82;100.00
38939;BME280;24211;49.980;19.776;2022-10-16T19:31:53;100171.53;;;15.59;100.00
38939;BME280;24211;49.980;19.776;2022-10-16T20:33:06;100210.72;;;14.56;100.00
